createdAt,value
2023-03-04T00:00:29.889Z,5.43
2023-03-04T00:02:56.771Z,5.38
2023-03-04T00:05:23.727Z,5.31
2023-03-04T00:07:50.546Z,5.29
2023-03-04T00:10:17.819Z,5.20
2023-03-04T00:12:44.669Z,5.12
2023-03-04T00:15:11.744Z,5.04
2023-03-04T00:17:38.680Z,4.92
2023-03-04T00:20:06.509Z,4.81
2023-03-04T00:22:33.283Z,4.80
2023-03-04T00:25:00.092Z,4.77
2023-03-04T00:27:26.977Z,4.81
2023-03-04T00:29:53.785Z,4.77
2023-03-04T00:32:20.648Z,4.77
2023-03-04T00:34:47.638Z,4.76
2023-03-04T00:37:14.544Z,4.71
2023-03-04T00:39:41.415Z,4.61
2023-03-04T00:42:08.230Z,4.59
2023-03-04T00:44:35.059Z,4.55
2023-03-04T00:47:01.890Z,4.50
2023-03-04T00:49:28.706Z,4.52
2023-03-04T00:51:55.511Z,4.43
2023-03-04T00:54:22.491Z,4.43
2023-03-04T00:56:49.303Z,4.38
2023-03-04T00:59:16.091Z,4.42
2023-03-04T01:01:42.952Z,4.40
2023-03-04T01:04:09.797Z,4.34
2023-03-04T01:06:36.635Z,4.37
2023-03-04T01:09:03.708Z,4.34
2023-03-04T01:11:30.643Z,4.35
2023-03-04T01:13:57.572Z,4.37
2023-03-04T01:16:24.381Z,4.31
2023-03-04T01:18:51.288Z,4.26
2023-03-04T01:21:18.145Z,4.30
2023-03-04T01:23:45.131Z,4.31
2023-03-04T01:26:11.926Z,4.28
2023-03-04T01:28:38.733Z,4.26
2023-03-04T01:31:05.808Z,4.26
2023-03-04T01:33:32.712Z,4.27
2023-03-04T01:35:59.518Z,4.22
2023-03-04T01:38:26.870Z,4.21
2023-03-04T01:40:54.271Z,4.24
2023-03-04T01:43:28.135Z,4.23
2023-03-04T01:45:56.584Z,4.18
2023-03-04T01:48:34.026Z,4.17
2023-03-04T01:51:03.116Z,4.12
2023-03-04T01:53:32.117Z,3.95
2023-03-04T01:56:21.527Z,3.93
2023-03-04T01:59:18.982Z,3.95
2023-03-04T02:01:50.072Z,3.92
2023-03-04T02:04:19.536Z,4.01
2023-03-04T02:06:47.992Z,4.07
2023-03-04T02:09:16.357Z,4.07
2023-03-04T02:11:45.351Z,4.10
2023-03-04T02:14:13.699Z,4.10
2023-03-04T02:16:40.562Z,4.02
2023-03-04T02:19:23.199Z,3.97
2023-03-04T02:21:50.003Z,3.93
2023-03-04T02:24:41.672Z,3.95
2023-03-04T02:27:08.538Z,3.97
2023-03-04T02:29:35.414Z,4.00
2023-03-04T02:32:02.375Z,4.10
2023-03-04T02:34:34.022Z,4.03
2023-03-04T02:37:02.731Z,4.08
2023-03-04T02:39:41.184Z,4.09
2023-03-04T02:42:08.711Z,4.07
2023-03-04T02:44:39.481Z,4.06
2023-03-04T02:47:10.116Z,4.03
2023-03-04T02:49:39.475Z,4.00
2023-03-04T02:52:14.647Z,4.01
2023-03-04T02:54:41.799Z,4.01
2023-03-04T02:57:12.249Z,4.05
2023-03-04T02:59:41.005Z,3.99
2023-03-04T03:02:09.595Z,3.98
2023-03-04T03:04:38.505Z,3.89
2023-03-04T03:07:05.545Z,3.86
2023-03-04T03:09:32.315Z,3.82
2023-03-04T03:11:59.223Z,3.82
2023-03-04T03:14:26.006Z,3.79
2023-03-04T03:16:52.910Z,3.80
2023-03-04T03:19:19.731Z,3.77
2023-03-04T03:21:46.568Z,3.82
2023-03-04T03:24:13.434Z,3.81
2023-03-04T03:26:40.907Z,3.87
2023-03-04T03:29:07.753Z,3.89
2023-03-04T03:31:34.628Z,3.84
2023-03-04T03:34:01.589Z,3.82
2023-03-04T03:36:28.490Z,3.82
2023-03-04T03:38:55.354Z,3.74
2023-03-04T03:41:22.234Z,3.71
2023-03-04T03:43:49.055Z,3.49
2023-03-04T03:46:15.824Z,3.41
2023-03-04T03:48:42.649Z,3.45
2023-03-04T03:51:09.549Z,3.46
2023-03-04T03:53:36.356Z,3.38
2023-03-04T03:56:03.311Z,3.35
2023-03-04T03:58:30.299Z,3.31
2023-03-04T04:00:58.403Z,3.30
2023-03-04T04:03:25.674Z,3.28
2023-03-04T04:05:52.516Z,3.29
2023-03-04T04:08:19.537Z,3.27
2023-03-04T04:10:46.405Z,3.25
2023-03-04T04:13:13.399Z,3.19
2023-03-04T04:15:40.279Z,3.26
2023-03-04T04:18:08.286Z,3.19
2023-03-04T04:20:35.775Z,3.18
2023-03-04T04:23:03.589Z,3.08
2023-03-04T04:25:30.429Z,3.04
2023-03-04T04:27:57.247Z,3.02
2023-03-04T04:30:24.068Z,3.03
2023-03-04T04:32:51.255Z,3.07
2023-03-04T04:35:18.257Z,3.03
2023-03-04T04:37:45.112Z,2.96
2023-03-04T04:40:12.592Z,2.95
2023-03-04T04:42:39.497Z,2.94
2023-03-04T04:45:07.450Z,2.89
2023-03-04T04:47:34.296Z,2.86
2023-03-04T04:50:01.304Z,2.83
2023-03-04T04:52:28.189Z,2.88
2023-03-04T04:54:55.027Z,2.79
2023-03-04T04:57:22.256Z,2.73
2023-03-04T04:59:49.266Z,2.72
2023-03-04T05:02:16.298Z,2.73
2023-03-04T05:04:43.202Z,2.65
2023-03-04T05:07:09.995Z,2.67
2023-03-04T05:09:36.804Z,2.60
2023-03-04T05:12:03.804Z,2.58
2023-03-04T05:14:30.597Z,2.64
2023-03-04T05:16:57.479Z,2.61
2023-03-04T05:19:24.292Z,2.61
2023-03-04T05:21:51.184Z,2.61
2023-03-04T05:24:18.019Z,2.66
2023-03-04T05:26:44.893Z,2.62
2023-03-04T05:29:11.812Z,2.60
2023-03-04T05:31:38.739Z,2.61
2023-03-04T05:34:05.605Z,2.69
2023-03-04T05:36:32.379Z,2.67
2023-03-04T05:38:59.274Z,2.66
2023-03-04T05:41:26.121Z,2.67
2023-03-04T05:43:52.938Z,2.60
2023-03-04T05:46:26.100Z,2.58
2023-03-04T05:48:54.063Z,2.56
2023-03-04T05:51:22.024Z,2.59
2023-03-04T05:53:49.448Z,2.61
2023-03-04T05:56:19.871Z,2.66
2023-03-04T05:58:49.969Z,2.72
2023-03-04T06:01:17.794Z,2.73
2023-03-04T06:03:44.958Z,2.77
2023-03-04T06:06:11.849Z,2.86
2023-03-04T06:08:38.730Z,2.83
2023-03-04T06:11:05.956Z,2.94
2023-03-04T06:13:33.353Z,3.09
2023-03-04T06:16:01.155Z,3.17
2023-03-04T06:18:29.525Z,3.16
2023-03-04T06:20:59.725Z,3.21
2023-03-04T06:23:27.813Z,3.31
2023-03-04T06:25:57.370Z,3.38
2023-03-04T06:28:24.831Z,3.56
2023-03-04T06:30:56.920Z,3.73
2023-03-04T06:33:24.332Z,3.91
2023-03-04T06:35:55.811Z,4.17
2023-03-04T06:38:23.697Z,4.37
2023-03-04T06:40:50.515Z,4.47
2023-03-04T06:43:17.356Z,4.08
2023-03-04T06:45:44.281Z,4.30
2023-03-04T06:48:11.656Z,3.89
2023-03-04T06:50:40.826Z,4.48
2023-03-04T06:53:07.702Z,4.51
2023-03-04T06:55:34.556Z,4.41
2023-03-04T06:58:01.647Z,4.61
2023-03-04T07:00:28.770Z,5.04
2023-03-04T07:02:55.592Z,5.27
2023-03-04T07:05:22.456Z,5.50
2023-03-04T07:07:49.734Z,5.55
2023-03-04T07:10:18.759Z,5.59
2023-03-04T07:12:45.867Z,5.83
2023-03-04T07:15:13.118Z,5.82
2023-03-04T07:17:39.978Z,5.46
2023-03-04T07:20:07.418Z,5.56
2023-03-04T07:22:34.199Z,5.84
2023-03-04T07:25:01.049Z,5.87
2023-03-04T07:27:27.862Z,6.19
2023-03-04T07:29:54.715Z,6.10
2023-03-04T07:32:21.733Z,6.43
2023-03-04T07:34:48.677Z,6.68
2023-03-04T07:37:15.607Z,6.66
2023-03-04T07:39:42.415Z,6.56
2023-03-04T07:42:09.251Z,6.53
2023-03-04T07:44:36.194Z,6.91
2023-03-04T07:47:03.161Z,6.94
2023-03-04T07:49:29.993Z,6.85
2023-03-04T07:51:56.904Z,6.58
2023-03-04T07:54:23.742Z,7.33
2023-03-04T07:56:50.575Z,7.65
2023-03-04T07:59:17.394Z,7.80
2023-03-04T08:01:45.639Z,8.22
2023-03-04T08:04:12.660Z,8.27
2023-03-04T08:06:41.896Z,8.45
2023-03-04T08:09:11.252Z,8.68
2023-03-04T08:11:38.980Z,8.56
2023-03-04T08:14:06.287Z,8.80
2023-03-04T08:16:33.449Z,8.73
2023-03-04T08:19:02.985Z,9.00
2023-03-04T08:21:30.728Z,8.64
2023-03-04T08:24:01.747Z,8.14
2023-03-04T08:26:34.085Z,9.21
2023-03-04T08:29:03.917Z,9.64
2023-03-04T08:31:31.538Z,10.04
2023-03-04T08:33:58.450Z,10.24
2023-03-04T08:36:25.245Z,10.07
2023-03-04T08:38:52.164Z,10.27
2023-03-04T08:41:19.206Z,10.32
2023-03-04T08:43:46.025Z,10.02
2023-03-04T08:46:12.880Z,10.78
2023-03-04T08:48:40.185Z,10.96
2023-03-04T08:51:12.446Z,10.62
2023-03-04T08:53:40.053Z,11.46
2023-03-04T08:56:08.121Z,11.22
2023-03-04T08:58:35.368Z,11.80
2023-03-04T09:01:03.509Z,12.11
2023-03-04T09:03:30.956Z,12.11
2023-03-04T09:05:57.956Z,12.42
2023-03-04T09:08:25.305Z,11.61
2023-03-04T09:10:54.587Z,12.76
2023-03-04T09:13:28.122Z,11.90
2023-03-04T09:15:55.023Z,11.36
2023-03-04T09:18:24.193Z,11.57
2023-03-04T09:20:51.785Z,11.63
2023-03-04T09:23:19.559Z,11.84
2023-03-04T09:25:47.708Z,11.31
2023-03-04T09:28:17.091Z,11.42
2023-03-04T09:30:44.671Z,11.63
2023-03-04T09:33:11.864Z,11.65
2023-03-04T09:35:38.797Z,11.25
2023-03-04T09:38:05.942Z,11.35
2023-03-04T09:40:46.940Z,10.95
2023-03-04T09:43:33.533Z,11.10
2023-03-04T09:46:05.343Z,11.44
2023-03-04T09:48:45.041Z,11.50
2023-03-04T09:51:45.624Z,11.58
2023-03-04T09:55:00.395Z,11.68
2023-03-04T09:57:45.317Z,11.57
2023-03-04T10:00:24.409Z,12.02
2023-03-04T10:03:11.944Z,11.85
2023-03-04T10:05:53.381Z,12.11
2023-03-04T10:08:42.324Z,12.51
2023-03-04T10:11:18.217Z,13.19
2023-03-04T10:13:54.465Z,13.19
2023-03-04T10:16:27.328Z,13.12
2023-03-04T10:18:58.611Z,13.88
2023-03-04T10:21:39.318Z,12.92
2023-03-04T10:24:18.085Z,13.33
2023-03-04T10:26:51.706Z,13.26
2023-03-04T10:29:24.271Z,13.05
2023-03-04T10:31:51.944Z,13.88
2023-03-04T10:34:19.214Z,13.30
2023-03-04T10:37:01.944Z,13.14
2023-03-04T10:39:38.882Z,13.95
2023-03-04T10:42:25.061Z,14.22
2023-03-04T10:45:00.811Z,14.22
2023-03-04T10:47:32.993Z,14.65
2023-03-04T10:50:04.876Z,14.47
2023-03-04T10:52:39.253Z,15.57
2023-03-04T10:55:30.732Z,15.77
2023-03-04T10:58:07.612Z,14.94
2023-03-04T11:00:37.126Z,14.16
2023-03-04T11:03:32.895Z,15.01
2023-03-04T11:06:19.573Z,15.35
2023-03-04T11:08:58.571Z,14.25
2023-03-04T11:11:38.459Z,14.29
2023-03-04T11:14:20.020Z,14.21
2023-03-04T11:17:02.181Z,15.54
2023-03-04T11:19:38.865Z,15.04
2023-03-04T11:22:06.406Z,15.46
2023-03-04T11:24:37.027Z,15.35
2023-03-04T11:27:07.284Z,15.26
2023-03-04T11:29:52.576Z,15.41
2023-03-04T11:32:24.698Z,15.70
2023-03-04T11:35:17.093Z,16.34
2023-03-04T11:38:21.408Z,16.12
2023-03-04T11:41:03.916Z,16.24
2023-03-04T11:43:37.422Z,16.17
2023-03-04T11:47:01.137Z,15.53
2023-03-04T11:49:57.244Z,16.16
2023-03-04T11:53:16.595Z,15.10
2023-03-04T11:56:13.353Z,13.90
2023-03-04T11:58:48.963Z,14.23
2023-03-04T12:01:43.611Z,14.78
2023-03-04T12:04:16.492Z,14.46
2023-03-04T12:07:01.130Z,14.42
2023-03-04T12:09:50.460Z,15.39
2023-03-04T12:13:02.434Z,16.38
2023-03-04T12:15:47.934Z,15.61
2023-03-04T12:18:44.635Z,15.88
2023-03-04T12:21:53.128Z,15.18
2023-03-04T12:24:50.056Z,16.13
2023-03-04T12:27:42.081Z,16.21
2023-03-04T12:30:51.712Z,16.94
2023-03-04T12:33:47.541Z,15.01
2023-03-04T12:36:47.443Z,16.78
2023-03-04T12:39:34.322Z,16.90
2023-03-04T12:42:23.336Z,17.99
2023-03-04T12:45:21.094Z,16.83
2023-03-04T12:48:22.217Z,17.10
2023-03-04T12:51:10.333Z,17.86
2023-03-04T12:53:44.894Z,18.25
2023-03-04T12:56:27.577Z,18.72
2023-03-04T12:58:55.832Z,19.56
2023-03-04T13:02:19.062Z,19.69
2023-03-04T13:05:35.345Z,19.49
2023-03-04T13:08:51.301Z,17.88
2023-03-04T13:11:31.105Z,18.77
2023-03-04T13:14:14.794Z,18.29
2023-03-04T13:16:54.209Z,18.87
2023-03-04T13:20:13.549Z,18.53
2023-03-04T13:22:40.257Z,19.15
2023-03-04T13:25:33.360Z,18.60
2023-03-04T13:28:09.323Z,19.93
2023-03-04T13:30:37.815Z,21.84
2023-03-04T13:33:10.743Z,20.67
2023-03-04T13:35:49.396Z,20.78
2023-03-04T13:38:33.289Z,21.41
2023-03-04T13:41:32.015Z,20.95
2023-03-04T13:44:01.667Z,20.81
2023-03-04T13:46:30.354Z,20.97
2023-03-04T13:48:57.149Z,20.15
2023-03-04T13:51:33.778Z,20.71
2023-03-04T13:54:00.669Z,21.78
2023-03-04T13:56:47.687Z,21.49
2023-03-04T13:59:26.624Z,20.10
2023-03-04T14:02:22.607Z,20.96
2023-03-04T14:05:02.016Z,21.19
2023-03-04T14:07:32.370Z,21.19
2023-03-04T14:10:07.672Z,20.23
2023-03-04T14:12:58.337Z,19.85
2023-03-04T14:15:35.254Z,20.96
2023-03-04T14:18:05.925Z,19.46
2023-03-04T14:20:39.198Z,19.87
2023-03-04T14:23:26.043Z,19.94
2023-03-04T14:26:04.115Z,19.21
2023-03-04T14:28:31.103Z,18.41
2023-03-04T14:30:58.424Z,18.92
2023-03-04T14:33:28.851Z,17.77
2023-03-04T14:35:59.731Z,17.84
2023-03-04T14:38:37.182Z,17.16
2023-03-04T14:41:44.113Z,18.55
2023-03-04T14:44:36.104Z,18.55
2023-03-04T14:47:34.086Z,18.22
2023-03-04T14:50:01.352Z,18.14
2023-03-04T14:52:41.447Z,18.28
2023-03-04T14:55:14.838Z,17.53
2023-03-04T14:57:45.488Z,18.25
2023-03-04T15:00:21.660Z,18.06
2023-03-04T15:02:53.136Z,17.94
2023-03-04T15:05:34.930Z,18.37
2023-03-04T15:08:21.088Z,18.37
2023-03-04T15:11:01.085Z,18.30
2023-03-04T15:13:42.380Z,17.97
2023-03-04T15:16:11.875Z,16.88
2023-03-04T15:18:39.920Z,18.10
2023-03-04T15:21:35.053Z,17.12
2023-03-04T15:24:05.167Z,18.21
2023-03-04T15:26:34.178Z,17.13
2023-03-04T15:29:01.238Z,15.77
2023-03-04T15:31:30.167Z,15.55
2023-03-04T15:33:57.257Z,15.78
2023-03-04T15:36:24.618Z,13.64
2023-03-04T15:38:53.244Z,11.82
2023-03-04T15:41:26.197Z,11.36
2023-03-04T15:43:54.444Z,10.55
2023-03-04T15:46:22.192Z,9.66
2023-03-04T15:48:49.566Z,9.73
2023-03-04T15:51:22.164Z,9.08
2023-03-04T15:53:52.373Z,8.95
2023-03-04T15:56:25.951Z,8.70
2023-03-04T15:59:10.635Z,8.07
2023-03-04T16:01:38.323Z,7.73
2023-03-04T16:04:05.785Z,8.10
2023-03-04T16:06:33.818Z,7.99
2023-03-04T16:09:01.686Z,7.77
2023-03-04T16:11:31.066Z,7.39
2023-03-04T16:13:57.879Z,7.50
2023-03-04T16:16:24.979Z,7.39
2023-03-04T16:18:51.963Z,6.96
2023-03-04T16:21:21.018Z,7.11
2023-03-04T16:23:50.665Z,6.96
2023-03-04T16:26:23.312Z,6.83
2023-03-04T16:28:54.310Z,6.49
2023-03-04T16:31:22.602Z,6.44
2023-03-04T16:33:49.632Z,6.48
2023-03-04T16:36:27.720Z,6.51
2023-03-04T16:39:02.720Z,6.14
2023-03-04T16:41:30.698Z,5.98
2023-03-04T16:44:01.092Z,5.95
2023-03-04T16:46:28.190Z,6.11
2023-03-04T16:48:55.426Z,6.46
2023-03-04T16:51:23.358Z,6.22
2023-03-04T16:53:59.985Z,6.50
2023-03-04T16:56:27.173Z,5.73
2023-03-04T16:58:56.626Z,6.01
2023-03-04T17:01:29.063Z,6.08
2023-03-04T17:03:56.628Z,6.20
2023-03-04T17:06:24.709Z,6.22
2023-03-04T17:08:51.631Z,6.10
2023-03-04T17:11:23.933Z,6.01
2023-03-04T17:13:51.834Z,6.16
2023-03-04T17:16:19.342Z,6.08
2023-03-04T17:18:46.499Z,5.94
2023-03-04T17:21:17.689Z,6.27
2023-03-04T17:23:44.583Z,5.88
2023-03-04T17:26:12.426Z,5.95
2023-03-04T17:28:39.645Z,5.88
2023-03-04T17:31:12.186Z,5.83
2023-03-04T17:33:39.446Z,6.07
2023-03-04T17:36:08.109Z,6.21
2023-03-04T17:38:36.166Z,6.12
2023-03-04T17:41:04.889Z,5.88
2023-03-04T17:43:32.834Z,6.12
2023-03-04T17:46:05.854Z,6.02
2023-03-04T17:48:32.830Z,5.92
2023-03-04T17:50:59.817Z,5.95
2023-03-04T17:53:26.854Z,5.62
2023-03-04T17:56:00.221Z,5.57
2023-03-04T17:58:29.416Z,5.87
2023-03-04T18:01:05.343Z,6.04
2023-03-04T18:03:32.196Z,5.77
2023-03-04T18:05:59.056Z,6.05
2023-03-04T18:08:25.943Z,6.04
2023-03-04T18:10:53.120Z,6.06
2023-03-04T18:13:20.627Z,5.91
2023-03-04T18:15:47.542Z,5.67
2023-03-04T18:18:14.427Z,5.90
2023-03-04T18:20:41.243Z,5.92
2023-03-04T18:23:08.148Z,6.03
2023-03-04T18:25:35.288Z,5.95
2023-03-04T18:28:02.603Z,6.03
2023-03-04T18:30:29.458Z,6.19
2023-03-04T18:32:59.860Z,6.23
2023-03-04T18:35:26.898Z,6.05
2023-03-04T18:37:53.711Z,5.98
2023-03-04T18:40:21.162Z,6.06
2023-03-04T18:42:47.972Z,5.99
2023-03-04T18:45:17.272Z,5.87
2023-03-04T18:47:50.885Z,5.68
2023-03-04T18:50:18.633Z,5.96
2023-03-04T18:52:45.817Z,5.79
2023-03-04T18:55:13.065Z,5.91
2023-03-04T18:57:43.222Z,5.93
2023-03-04T19:00:11.383Z,5.90
2023-03-04T19:03:01.521Z,5.54
2023-03-04T19:05:31.784Z,5.72
2023-03-04T19:07:59.529Z,5.79
2023-03-04T19:10:26.936Z,5.81
2023-03-04T19:12:53.825Z,5.88
2023-03-04T19:15:20.750Z,5.57
2023-03-04T19:17:47.635Z,5.44
2023-03-04T19:20:16.086Z,5.60
2023-03-04T19:22:43.857Z,5.56
2023-03-04T19:25:11.914Z,5.80
2023-03-04T19:27:38.963Z,5.55
2023-03-04T19:30:07.575Z,5.85
2023-03-04T19:32:34.512Z,5.37
2023-03-04T19:35:01.530Z,5.90
2023-03-04T19:37:28.387Z,5.88
2023-03-04T19:39:56.017Z,6.01
2023-03-04T19:42:24.212Z,5.85
2023-03-04T19:44:51.491Z,5.79
2023-03-04T19:47:18.451Z,5.72
2023-03-04T19:49:45.428Z,6.16
2023-03-04T19:52:12.289Z,5.98
2023-03-04T19:54:39.211Z,5.75
2023-03-04T19:57:06.068Z,5.91
2023-03-04T19:59:34.550Z,5.99
2023-03-04T20:02:01.679Z,5.77
2023-03-04T20:04:28.838Z,5.89
2023-03-04T20:06:55.672Z,5.60
2023-03-04T20:09:22.843Z,5.65
2023-03-04T20:11:59.043Z,5.95
2023-03-04T20:14:28.200Z,6.00
2023-03-04T20:17:00.616Z,6.10
2023-03-04T20:19:27.491Z,5.71
2023-03-04T20:21:54.397Z,5.95
2023-03-04T20:24:23.016Z,6.00
2023-03-04T20:26:50.720Z,6.13
2023-03-04T20:29:18.313Z,6.19
2023-03-04T20:31:46.441Z,5.97
2023-03-04T20:34:13.925Z,5.68
2023-03-04T20:36:40.803Z,5.65
2023-03-04T20:39:27.086Z,5.42
2023-03-04T20:41:56.742Z,5.74
2023-03-04T20:44:23.626Z,5.80
2023-03-04T20:46:50.554Z,5.75
2023-03-04T20:49:24.469Z,5.62
2023-03-04T20:51:57.923Z,5.30
2023-03-04T20:54:24.811Z,5.83
2023-03-04T20:56:51.674Z,5.70
2023-03-04T20:59:18.743Z,5.41
2023-03-04T21:01:47.960Z,5.62
2023-03-04T21:04:16.584Z,5.61
2023-03-04T21:06:45.037Z,5.77
2023-03-04T21:09:15.772Z,5.50
2023-03-04T21:11:43.551Z,5.50
2023-03-04T21:14:24.948Z,5.36
2023-03-04T21:16:55.044Z,5.65
2023-03-04T21:19:27.360Z,6.23
2023-03-04T21:21:55.998Z,5.90
2023-03-04T21:24:26.687Z,5.87
2023-03-04T21:26:53.624Z,6.04
2023-03-04T21:29:24.487Z,6.15
2023-03-04T21:32:23.831Z,6.11
2023-03-04T21:34:53.347Z,6.02
2023-03-04T21:37:25.333Z,6.04
2023-03-04T21:39:52.539Z,5.50
2023-03-04T21:42:19.917Z,5.24
2023-03-04T21:44:51.241Z,5.78
2023-03-04T21:47:20.222Z,5.84
2023-03-04T21:49:47.476Z,5.95
2023-03-04T21:52:14.677Z,5.78
2023-03-04T21:54:41.493Z,5.82
2023-03-04T21:57:08.372Z,5.74
2023-03-04T21:59:35.186Z,5.86
2023-03-04T22:02:02.460Z,6.00
2023-03-04T22:04:29.347Z,5.98
2023-03-04T22:06:56.213Z,5.98
2023-03-04T22:09:23.119Z,5.65
2023-03-04T22:11:50.079Z,5.53
2023-03-04T22:14:16.937Z,5.87
2023-03-04T22:16:59.023Z,5.98
2023-03-04T22:19:31.547Z,6.01
2023-03-04T22:21:59.244Z,5.56
2023-03-04T22:24:26.319Z,5.62
2023-03-04T22:26:53.532Z,5.96
2023-03-04T22:29:20.386Z,6.10
2023-03-04T22:31:47.683Z,5.89
2023-03-04T22:34:16.156Z,5.93
2023-03-04T22:36:46.202Z,6.00
2023-03-04T22:39:16.918Z,5.84
2023-03-04T22:41:43.875Z,5.43
2023-03-04T22:44:11.012Z,5.88
2023-03-04T22:46:39.610Z,6.01
2023-03-04T22:49:09.942Z,6.03
2023-03-04T22:51:38.035Z,5.91
2023-03-04T22:54:04.962Z,6.04
2023-03-04T22:56:31.904Z,5.56
2023-03-04T22:58:58.806Z,5.78
2023-03-04T23:01:25.698Z,5.71
2023-03-04T23:03:52.791Z,5.70
2023-03-04T23:06:25.156Z,5.64
2023-03-04T23:08:52.892Z,5.73
2023-03-04T23:11:30.827Z,5.83
2023-03-04T23:13:58.146Z,5.92
2023-03-04T23:16:27.800Z,5.64
2023-03-04T23:18:54.706Z,5.83
2023-03-04T23:21:24.976Z,5.64
2023-03-04T23:23:52.485Z,5.45
2023-03-04T23:26:26.065Z,5.48
2023-03-04T23:28:55.745Z,5.44
2023-03-04T23:31:23.195Z,5.59
2023-03-04T23:33:50.096Z,5.70
2023-03-04T23:36:18.971Z,5.79
2023-03-04T23:38:49.224Z,5.12
2023-03-04T23:41:30.002Z,5.67
2023-03-04T23:43:58.947Z,5.42
2023-03-04T23:46:27.088Z,5.74
2023-03-04T23:48:54.680Z,5.65
2023-03-04T23:51:26.049Z,5.84
2023-03-04T23:53:52.878Z,5.72
2023-03-04T23:56:24.319Z,5.35
2023-03-04T23:58:51.519Z,5.13
